Tiempo atmosférico en la estación meteorológica de Capdepera, Illes Balears (57 m.)



Fecha
DESCASC
Temp. máxima en grados centígrados (hora)
DESCASC
Temp. mínima en grados centígrados (hora)
DESCASC
Temp. media en grados centígrados
DESCASC
Racha de viento máxima en m/sg (hora)
DESCASC
Velocidad máxima media en intervalos de 10 minutos(hora)
DESCASC
Precipitaciones diarias en mm
DESCASC
Precipitaciones de 00:00 a 06:00 en mm
DESCASC
Precipitaciones de 06:00 a 12:00 en mm
DESCASC
Precipitaciones de 12:00 a 18:00 en mm
DESCASC
Precipitaciones de 18:00 a 24:00 en mm
DESCASC
16-06-2019 24 (14:50) 18.7 (03:50) 21.4 10.83 (08:50) 9.17 (10:30) 0 0 0 0 0
15-06-2019 27.7 (11:30) 18.9 (06:10) 23.3 9.44 (07:20) 8.06 (23:59) 0 0 0 0 0
14-06-2019 27.4 (11:50) 20.3 (00:00) 23.8 11.94 (15:30) 8.61 (15:20) 0 0 0 0 0
13-06-2019 22.2 (14:00) 17.9 (00:00) 20.1 10.28 (23:00) 8.61 (08:50) 0 0 0 0 0
12-06-2019 20.8 (16:20) 15.8 (00:00) 18.3 12.5 (00:10) 10.56 (00:10) 0 0 0 0 0
11-06-2019 24.2 (15:20) 15.8 (00:00) 20 14.17 (22:30) 11.39 (23:40) 1.9 0 0 0 1.9
10-06-2019 23.7 (15:10) 18.7 (00:00) 21.2 15.56 (09:10) 12.5 (09:20) 0 0 0 0 0
09-06-2019 25.4 (13:30) 18.8 (00:00) 22.1 11.67 (16:30) 8.89 (16:20) 0 0 0 0 0
08-06-2019 22.4 (15:30) 18.7 (00:00) 20.6 -- (--) -- (--) 0 0 0 0 0
07-06-2019 -- (--) -- (--) -- -- (--) -- (--) 0 0 0 0 0
06-06-2019 -- (--) -- (--) -- -- (--) -- (--) -- -- -- -- --
05-06-2019 -- (--) -- (--) -- -- (--) -- (--) -- 0 -- 0 --
04-06-2019 -- (--) -- (--) -- -- (--) -- (--) -- -- 0 -- --
03-06-2019 -- (--) -- (--) -- -- (--) -- (--) -- -- -- 0 --
02-06-2019 24.5 (14:50) 17 (00:00) 20.8 7.5 (20:10) 6.11 (17:00) 0 0 0 0 0
01-06-2019 24.1 (15:00) 17.3 (00:00) 20.7 5.28 (21:00) 4.44 (18:20) -- 0 0 0 --
31-05-2019 23.3 (13:50) 16.9 (00:00) 20.1 9.44 (09:50) 6.94 (11:20) 0 0 0 0 0
30-05-2019 22.1 (08:40) 15.7 (00:00) 18.9 13.33 (12:20) 9.72 (12:20) 0 0 0 0 0
29-05-2019 -- (--) -- (--) -- -- (--) -- (--) -- -- -- 0 0
28-05-2019 22.1 (10:00) 16.5 (00:00) 19.3 10.83 (18:20) 9.17 (18:20) -- 0 0 -- 0.4
27-05-2019 24 (12:50) 18.3 (00:00) 21.1 10.28 (09:10) 7.78 (10:40) 0 0 0 0 0
26-05-2019 21.8 (16:30) 17 (00:00) 19.4 13.33 (12:10) 10.83 (12:10) 0 0 0 0 0
25-05-2019 18.6 (13:20) 15.9 (00:00) 17.3 12.22 (17:00) 10 (19:40) 1.2 0 0 1.2 0
24-05-2019 21.6 (09:20) 16.4 (00:00) 19 10.56 (16:20) 7.5 (16:20) 0.3 0 0 0.2 0.1
23-05-2019 23.6 (09:10) 16.1 (00:00) 19.9 13.89 (18:00) 8.89 (18:40) 0 0 0 0 0
22-05-2019 23.2 (14:50) 16.2 (00:00) 19.7 7.22 (10:50) 5.28 (10:40) 0 0 0 0 0
21-05-2019 22.6 (13:20) 14.5 (06:10) 18.6 -- (--) -- (--) -- -- 0 -- 0

Gráficas

Temp. máximas Temp. mínimas Temp. medias Precipitaciones Rachas de viento máximas Velocidades máximas media en intervalos de 10 minutos

Datos horarios

Fecha y hora oficial Temperatura (ºC) Velocidad del viento (km/h) Dirección del viento Racha (km/h) Dirección de racha Precipitación (mm) Presión (hPa) Tendencia (hPa) Humedad (%)
2019-06-19 23:00:00 20.6 3 Sudoeste 24 Sur 0 -- -- 96
2019-06-19 22:00:00 21.1 13 Sur 30 Sur 0 -- -- 96
2019-06-19 21:00:00 21.4 17 Sudoeste 37 Sur 0 -- -- 94
2019-06-19 20:00:00 21.4 27 Sur 41 Sur 0 -- -- 92
2019-06-19 19:00:00 21.7 21 Sudoeste 45 Sur 0 -- -- 90
2019-06-19 18:00:00 22.3 24 Sudoeste 42 Sur 0 -- -- 85
2019-06-19 17:00:00 22.4 26 Sur 46 Sudoeste 0 -- -- 86
2019-06-19 16:00:00 22.1 31 Sur 50 Sur 0 -- -- 86
2019-06-19 15:00:00 22.7 33 Sur 40 Sur 0 -- -- 81
2019-06-19 14:00:00 24.5 30 Sur 38 Sur 0 -- -- 74
2019-06-19 13:00:00 22.6 28 Sur 42 Sur 0 -- -- 83
2019-06-19 12:00:00 22.9 31 Sur 37 Sur 0 -- -- 83
2019-06-19 11:00:00 24 22 Sur 25 Sur 0 -- -- 78
2019-06-19 10:00:00 23.3 15 Sur -- -- 0 -- -- 82
2019-06-19 09:00:00 22.6 9 Sur 14 Sur 0 -- -- 84
2019-06-19 08:00:00 20.8 6 Sudoeste 21 Sur 0 -- -- 96
2019-06-19 07:00:00 19.7 12 Sur 21 Sur 0 -- -- 96
2019-06-19 06:00:00 19.5 7 Sudoeste 17 Sudoeste 0 -- -- 95
2019-06-19 05:00:00 19.3 3 Sudoeste 10 Sudoeste 0 -- -- 90
2019-06-19 04:00:00 19.3 6 Sur 7 Sur 0 -- -- 90
2019-06-19 03:00:00 19.4 2 Sudoeste 16 Sudoeste 0 -- -- 93
2019-06-19 02:00:00 20 6 Sudoeste 17 Sudoeste 0 -- -- 93
2019-06-19 01:00:00 20.4 10 Sudoeste 21 Sudoeste 0 -- -- 94
2019-06-19 00:00:00 20.7 11 Sudoeste 21 Sur 0 -- -- 93
2019-06-18 23:00:00 21.2 12 Sur 22 Sudoeste 0 -- -- 88
2019-06-18 22:00:00 21.7 5 Sur 14 Sudoeste 0 -- -- 59
2019-06-18 21:00:00 21.7 7 Sudoeste 27 Sur 0 -- -- 69
2019-06-18 20:00:00 21.7 15 Sur 25 Sudoeste 0 -- -- 81
2019-06-18 19:00:00 22 17 Sur 24 Sur 0 -- -- 75
2019-06-18 18:00:00 23.2 19 Sur 27 Sur 0 -- -- 69
2019-06-18 17:00:00 25.6 19 Sur 22 Sur 0 -- -- 62
2019-06-18 16:00:00 25.7 19 Sur 22 Sur 0 -- -- 62
2019-06-18 15:00:00 26.2 18 Sur 23 Sur 0 -- -- 60
2019-06-18 14:00:00 25.9 19 Sur 22 Sur 0 -- -- 60
2019-06-18 13:00:00 26.2 15 Sur 20 Sudeste 0 -- -- 60
2019-06-18 12:00:00 25.6 14 Sur 17 Sur 0 -- -- 65
2019-06-18 11:00:00 24.7 13 Sur 15 Sur 0 -- -- 66
2019-06-18 10:00:00 24 5 Sudeste 8 Sudeste 0 -- -- 66
2019-06-18 09:00:00 24.8 2 Nordeste 6 Este 0 -- -- 63
2019-06-18 08:00:00 23.8 4 Noroeste 10 Noroeste 0 -- -- 65
2019-06-18 07:00:00 21.8 9 Noroeste 15 Noroeste 0 -- -- 66
2019-06-18 06:00:00 19.6 4 Norte 6 Noroeste 0 -- -- 73
2019-06-18 05:00:00 19.8 2 Nordeste 5 Nordeste 0 -- -- 70
2019-06-18 04:00:00 20.6 2 Noroeste 9 Noroeste 0 -- -- 59
2019-06-18 03:00:00 20.9 6 Noroeste 13 Noroeste 0 -- -- 59
2019-06-18 02:00:00 20.9 9 Noroeste 13 Noroeste 0 -- -- 63
2019-06-18 01:00:00 20.6 10 Noroeste 15 Noroeste 0 -- -- 72
2019-06-18 00:00:00 21.3 12 Noroeste 16 Noroeste 0 -- -- 69
2019-06-17 23:00:00 21.6 4 Sudoeste 9 Sudoeste 0 -- -- 55
2019-06-17 22:00:00 21.7 0 Calma 16 Sudoeste 0 -- -- 58
2019-06-17 21:00:00 22.1 12 Sudoeste 21 Sudoeste 0 -- -- 65
2019-06-17 20:00:00 22 12 Sur 19 Sur 0 -- -- 67
2019-06-17 19:00:00 22.7 13 Sur 18 Sur 0 -- -- 71
2019-06-17 18:00:00 24.9 7 Sur 12 Sur 0 -- -- 57
2019-06-17 17:00:00 25.4 9 Sur 19 Sur 0 -- -- 60
2019-06-17 16:00:00 25.8 8 Sur 16 Noroeste 0 -- -- 59
2019-06-17 15:00:00 26.2 15 Noroeste 19 Noroeste 0 -- -- 57
2019-06-17 14:00:00 25.5 17 Noroeste 22 Noroeste 0 -- -- 63
2019-06-17 13:00:00 25.5 18 Noroeste 21 Noroeste 0 -- -- 66
2019-06-17 12:00:00 24.8 17 Noroeste 21 Norte 0 -- -- 67
2019-06-17 11:00:00 23.5 16 Noroeste 22 Noroeste 0 -- -- 72
2019-06-17 10:00:00 21.6 21 Noroeste 24 Noroeste 0 -- -- 75
2019-06-17 09:00:00 21.1 18 Noroeste 28 Noroeste 0 -- -- 75
2019-06-17 08:00:00 20.2 19 Noroeste 27 Norte 0 -- -- 76
2019-06-17 07:00:00 19.7 10 Noroeste 15 Noroeste 0 -- -- 78
2019-06-17 06:00:00 19.5 9 Noroeste 12 Noroeste 0 -- -- 74
2019-06-17 05:00:00 19.2 8 Oeste 12 Oeste 0 -- -- 79
2019-06-17 04:00:00 19.7 5 Noroeste 8 Noroeste 0 -- -- 75
2019-06-17 03:00:00 19.7 4 Oeste 6 Sudoeste 0 -- -- 62
2019-06-17 02:00:00 19.4 0 Calma 9 Oeste 0 -- -- 70
2019-06-17 01:00:00 19 3 Sudoeste 12 Sudoeste 0 -- -- 80
2019-06-17 00:00:00 19.5 0 Calma 9 Sur 0 -- -- 84
2019-06-16 23:00:00 19.7 6 Sur 8 Sur 0 -- -- 82
2019-06-16 22:00:00 19.9 5 Sur 11 Sur 0 -- -- 78
2019-06-16 21:00:00 20.4 3 Sur 10 Noroeste 0 -- -- 75
2019-06-16 20:00:00 20.8 6 Norte 13 Norte 0 -- -- 74
2019-06-16 19:00:00 21.2 12 Noroeste 22 Noroeste 0 -- -- 72
2019-06-16 18:00:00 21.6 17 Noroeste 19 Noroeste 0 -- -- 69
2019-06-16 17:00:00 22.4 15 Noroeste 22 Noroeste 0 -- -- 66
2019-06-16 16:00:00 23.1 18 Noroeste 24 Noroeste 0 -- -- 65
2019-06-16 15:00:00 23.7 18 Norte 24 Norte 0 -- -- 62
2019-06-16 14:00:00 23.4 21 Norte 28 Norte 0 -- -- 63
2019-06-16 13:00:00 22.9 24 Norte 34 Norte 0 -- -- 65
2019-06-16 12:00:00 22.6 28 Norte 35 Norte 0 -- -- 67
2019-06-16 11:00:00 21.8 30 Norte 37 Norte 0 -- -- 69
2019-06-16 10:00:00 21 33 Norte 38 Norte 0 -- -- 74
2019-06-16 09:00:00 20.4 31 Norte 39 Norte 0 -- -- 75
2019-06-16 08:00:00 19.9 29 Norte 36 Nordeste 0 -- -- 77
2019-06-16 07:00:00 19.2 26 Norte 34 Nordeste 0 -- -- 78
2019-06-16 06:00:00 18.9 21 Norte 28 Norte 0 -- -- 81
2019-06-16 05:00:00 19 23 Norte 30 Nordeste 0 -- -- 83
2019-06-16 04:00:00 18.9 22 Norte 32 Nordeste 0 -- -- 87
2019-06-16 03:00:00 19.1 26 Nordeste 36 Nordeste 0 -- -- 86
2019-06-16 02:00:00 19.2 23 Norte 34 Nordeste 0 -- -- 84
2019-06-16 01:00:00 19 28 Norte 37 Nordeste 0 -- -- 87
2019-06-16 00:00:00 19.7 29 Norte 34 Norte 0 -- -- 90
2019-06-15 23:00:00 19.9 27 Norte 31 Norte 0 -- -- 90
2019-06-15 22:00:00 20.2 26 Norte 30 Norte 0 -- -- 90
2019-06-15 21:00:00 20.6 22 Norte 27 Norte 0 -- -- 88
2019-06-15 20:00:00 21.1 21 Norte 23 Norte 0 -- -- 84
2019-06-15 19:00:00 21.8 21 Norte 26 Norte 0 -- -- 79
2019-06-15 18:00:00 23 21 Norte 26 Norte 0 -- -- 72
2019-06-15 17:00:00 23 17 Norte 22 Norte 0 -- -- 71
2019-06-15 16:00:00 23 15 Norte 20 Norte 0 -- -- 72
2019-06-15 15:00:00 25.4 13 Norte 18 Noroeste 0 -- -- 63
2019-06-15 14:00:00 25.4 15 Noroeste 17 Noroeste 0 -- -- 63
2019-06-15 13:00:00 25.6 5 Sudeste 21 Sur 0 -- -- 65
2019-06-15 12:00:00 24.8 10 Este 21 Norte 0 -- -- 65
2019-06-15 11:00:00 26.9 4 Sudoeste 23 Sudoeste 0 -- -- 54
2019-06-15 10:00:00 23.8 6 Sudoeste 29 Sudoeste 0 -- -- 64
2019-06-15 09:00:00 22.7 7 Sudoeste 23 Sudoeste 0 -- -- 69
2019-06-15 08:00:00 20.6 7 Sudoeste 34 Sudoeste 0 -- -- 76
2019-06-15 07:00:00 19.4 7 Oeste 27 Sur 0 -- -- 85
2019-06-15 06:00:00 19 8 Sudoeste 29 Sur 0 -- -- 87
2019-06-15 05:00:00 19.3 7 Sudoeste 28 Sur 0 -- -- 81
2019-06-15 04:00:00 19.3 5 Sudoeste 29 Sudoeste 0 -- -- 80
2019-06-15 03:00:00 19.4 7 Sudoeste 28 Sur 0 -- -- 83
2019-06-15 02:00:00 20.1 13 Sur 19 Sur 0 -- -- 80
2019-06-15 01:00:00 20.3 4 Oeste 19 Oeste 0 -- -- 72
2019-06-15 00:00:00 20.6 5 Sudoeste 22 Sudoeste 0 -- -- 77
2019-06-14 23:00:00 20.8 7 Oeste 31 Oeste 0 -- -- 81
2019-06-14 22:00:00 21.8 6 Oeste 28 Oeste 0 -- -- 75
2019-06-14 21:00:00 22.4 5 Sudoeste 19 Nordeste 0 -- -- 68
2019-06-14 20:00:00 20.7 18 Este 27 Este 0 -- -- 87
2019-06-14 19:00:00 21.1 9 Este 13 Sudeste 0 -- -- 84
2019-06-14 18:00:00 22.9 10 Norte 22 Norte 0 -- -- 72
2019-06-14 17:00:00 23.1 23 Norte 42 Norte 0 -- -- 69
2019-06-14 16:00:00 23.2 30 Norte 43 Norte 0 -- -- 68
2019-06-14 15:00:00 23.7 29 Norte 40 Noroeste 0 -- -- 65
2019-06-14 14:00:00 26.6 10 Oeste 31 Oeste 0 -- -- 56
2019-06-14 13:00:00 24.9 10 Sudoeste 41 Norte 0 -- -- 61
2019-06-14 12:00:00 25.8 19 Norte 34 Norte 0 -- -- 60
2019-06-14 11:00:00 23.6 9 Oeste 32 Oeste 0 -- -- 70
2019-06-14 10:00:00 21.9 12 Sudoeste 38 Sudoeste 0 -- -- 83
2019-06-14 09:00:00 23 7 Sudoeste 21 Oeste 0 -- -- 81
2019-06-14 08:00:00 21.2 5 Norte 11 Oeste 0 -- -- 94
2019-06-14 07:00:00 20.5 4 Oeste 21 Este 0 -- -- 96
2019-06-14 06:00:00 20.5 19 Este 24 Nordeste 0 -- -- 95
2019-06-14 05:00:00 20.5 20 Nordeste 26 Nordeste 0 -- -- 91
2019-06-14 04:00:00 20.5 12 Nordeste 22 Nordeste 0 -- -- 89
2019-06-14 03:00:00 20.5 19 Nordeste 30 Nordeste 0 -- -- 87
2019-06-14 02:00:00 20.8 22 Nordeste 28 Nordeste 0 -- -- 84
2019-06-14 01:00:00 20.8 21 Nordeste 26 Nordeste 0 -- -- 80
2019-06-14 00:00:00 20.3 17 Nordeste 27 Norte 0 -- -- 87
2019-06-13 23:00:00 20.4 21 Nordeste 37 Nordeste 0 -- -- 90
2019-06-13 22:00:00 20.3 18 Nordeste 35 Este 0 -- -- 87
2019-06-13 21:00:00 20.4 24 Este 35 Este 0 -- -- 85
2019-06-13 20:00:00 20.4 28 Este 34 Este 0 -- -- 84
2019-06-13 19:00:00 20.7 24 Este 32 Este 0 -- -- 80
2019-06-13 18:00:00 21 26 Este 33 Este 0 -- -- 74
2019-06-13 17:00:00 21.5 23 Este 34 Este 0 -- -- 71
2019-06-13 16:00:00 21.7 26 Este 35 Este 0 -- -- 64
2019-06-13 15:00:00 21.3 30 Este 36 Este 0 -- -- 65
2019-06-13 14:00:00 22.2 25 Este 32 Este 0 -- -- 65
2019-06-13 13:00:00 21.8 22 Este 27 Nordeste 0 -- -- 60
2019-06-13 12:00:00 20.8 23 Nordeste 31 Nordeste 0 -- -- 62
2019-06-13 11:00:00 21 24 Nordeste 36 Nordeste 0 -- -- 66
2019-06-13 10:00:00 20.4 23 Nordeste 34 Nordeste 0 -- -- 68
2019-06-13 09:00:00 19.6 27 Nordeste 36 Nordeste 0 -- -- 74
2019-06-13 08:00:00 19.2 21 Nordeste 29 Nordeste 0 -- -- 78
2019-06-13 07:00:00 18.2 20 Nordeste 28 Nordeste 0 -- -- 87
2019-06-13 06:00:00 18.2 17 Nordeste 22 Nordeste 0 -- -- 82
2019-06-13 05:00:00 18.2 8 Este 17 Este 0 -- -- 81
2019-06-13 04:00:00 18.1 10 Este 15 Este 0 -- -- 81
2019-06-13 03:00:00 18 12 Sudeste 18 Sudeste 0 -- -- 81
2019-06-13 02:00:00 18.1 13 Sudeste 18 Este 0 -- -- 81
2019-06-13 01:00:00 18.1 14 Este 20 Este 0 -- -- 81
2019-06-13 00:00:00 18.2 18 Sudeste 23 Este 0 -- -- 80
2019-06-12 23:00:00 18.2 17 Este 22 Sudeste 0 -- -- 78
2019-06-12 22:00:00 18.2 17 Sudeste 24 Sudeste 0 -- -- 76
2019-06-12 21:00:00 18.3 18 Sudeste 26 Sudeste 0 -- -- 75
2019-06-12 20:00:00 18.5 22 Sudeste 28 Sudeste 0 -- -- 72
2019-06-12 19:00:00 18.6 21 Sudeste 26 Sudeste 0 -- -- 70
2019-06-12 18:00:00 19.8 16 Sudeste 23 Sudeste 0 -- -- 65
2019-06-12 17:00:00 20.3 13 Sudeste 26 Norte 0 -- -- 63
2019-06-12 16:00:00 20.5 19 Norte 27 Norte 0 -- -- 62
2019-06-12 15:00:00 19.6 22 Norte 29 Nordeste 0 -- -- 64
2019-06-12 14:00:00 19.1 21 Norte 30 Norte 0 -- -- 63
2019-06-12 13:00:00 19.7 21 Norte 29 Norte 0 -- -- 62
2019-06-12 12:00:00 20.4 12 Norte 18 Norte 0 -- -- 63
2019-06-12 11:00:00 18.5 9 Nordeste 19 Nordeste 0 -- -- 67
2019-06-12 10:00:00 18.2 13 Nordeste 21 Norte 0 -- -- 69
2019-06-12 09:00:00 17.5 16 Nordeste 26 Nordeste 0 -- -- 74
2019-06-12 08:00:00 17.2 22 Nordeste 30 Nordeste 0 -- -- 78
2019-06-12 07:00:00 16.9 21 Nordeste 27 Nordeste 0 -- -- 80
2019-06-12 06:00:00 16.8 22 Nordeste 30 Nordeste 0 -- -- 78
2019-06-12 05:00:00 16.7 23 Nordeste 31 Nordeste 0 -- -- 78
2019-06-12 04:00:00 16.7 21 Nordeste 34 Nordeste 0 -- -- 79
2019-06-12 03:00:00 16.4 30 Norte 43 Norte 0 -- -- 82
2019-06-12 02:00:00 16.2 35 Norte 41 Norte 0 -- -- 87
2019-06-12 01:00:00 16.3 32 Norte 45 Norte 0 -- -- 91
2019-06-12 00:00:00 15.9 40 Norte 51 Norte 1.9 -- -- 95
2019-06-11 23:00:00 17.3 38 Norte 51 Nordeste 0 -- -- 90
2019-06-11 22:00:00 18 36 Norte 45 Norte 0 -- -- 90
2019-06-11 21:00:00 18.5 40 Nordeste 49 Nordeste 0 -- -- 89
2019-06-11 20:00:00 20.3 9 Nordeste 23 Sudeste 0 -- -- 79
2019-06-11 19:00:00 20.6 20 Sudeste 23 Sudeste 0 -- -- 78
2019-06-11 18:00:00 21.5 20 Sudeste 24 Sudeste 0 -- -- 72
2019-06-11 17:00:00 22.6 18 Sur 23 Sur 0 -- -- 67
2019-06-11 16:00:00 23.8 18 Sur 25 Sur 0 -- -- 64
2019-06-11 15:00:00 23.8 22 Sur 27 Sudeste 0 -- -- 65
2019-06-11 14:00:00 23.3 21 Sur 29 Sur 0 -- -- 66
2019-06-11 13:00:00 23 22 Sur 24 Sur 0 -- -- 67
2019-06-11 12:00:00 21.4 18 Sudeste 21 Sur 0 -- -- 72
2019-06-11 11:00:00 21.7 15 Sudeste 21 Sudeste 0 -- -- 69
2019-06-11 10:00:00 20.9 13 Sudeste 18 Sudeste 0 -- -- 71
2019-06-11 09:00:00 21.3 9 Sudeste 15 Este 0 -- -- 69
2019-06-11 08:00:00 19.9 10 Este 18 Nordeste 0 -- -- 75
2019-06-11 07:00:00 18.6 13 Nordeste 20 Nordeste 0 -- -- 81
2019-06-11 06:00:00 18.3 16 Nordeste 21 Este 0 -- -- 80
2019-06-11 05:00:00 18.3 15 Nordeste 17 Nordeste 0 -- -- 81
2019-06-11 04:00:00 18.5 4 Norte 6 Norte 0 -- -- 84
2019-06-11 03:00:00 18.7 3 Sur 6 Sur 0 -- -- 81
2019-06-11 02:00:00 18.9 3 Sudoeste 8 Sur 0 -- -- 76
2019-06-11 01:00:00 19.2 0 Calma 12 Sudeste 0 -- -- 73
2019-06-11 00:00:00 19.7 9 Sudeste 16 Sudeste 0 -- -- 69
2019-06-10 23:00:00 19.8 13 Sudeste 18 Este 0 -- -- 68
2019-06-10 22:00:00 20 16 Este 19 Nordeste 0 -- -- 69
2019-06-10 21:00:00 20.1 12 Norte 15 Norte 0 -- -- 68
2019-06-10 20:00:00 20.6 10 Norte 19 Noroeste 0 -- -- 70
2019-06-10 19:00:00 20.8 17 Noroeste 23 Norte 0 -- -- 72
2019-06-10 18:00:00 22 21 Noroeste 34 Noroeste 0 -- -- 69
2019-06-10 17:00:00 22.7 27 Noroeste 34 Noroeste 0 -- -- 56
2019-06-10 16:00:00 22.6 28 Norte 41 Norte 0 -- -- 56
2019-06-10 15:00:00 23.6 32 Norte 43 Norte 0 -- -- 56
2019-06-10 14:00:00 22.8 30 Norte 40 Norte 0 -- -- 60
2019-06-10 13:00:00 23.1 22 Noroeste 35 Norte 0 -- -- 68
2019-06-10 12:00:00 21.6 25 Norte 44 Noroeste 0 -- -- 74
2019-06-10 11:00:00 21.4 27 Norte 42 Norte 0 -- -- 78
2019-06-10 10:00:00 19.8 37 Norte 56 Norte 0 -- -- 84
2019-06-10 09:00:00 19.9 41 Norte 51 Noroeste 0 -- -- 81
2019-06-10 08:00:00 19.8 38 Norte 46 Norte 0 -- -- 81
2019-06-10 07:00:00 19.5 35 Norte 44 Noroeste 0 -- -- 84
2019-06-10 06:00:00 19 19 Noroeste 39 Norte 0 -- -- 90
2019-06-10 05:00:00 18.8 18 Noroeste 39 Norte 0 -- -- 93
2019-06-10 04:00:00 19.1 23 Noroeste 39 Noroeste 0 -- -- 90
2019-06-10 03:00:00 19 28 Noroeste 43 Noroeste 0 -- -- 91
2019-06-10 02:00:00 19.1 27 Norte 39 Noroeste 0 -- -- 91
2019-06-10 01:00:00 19.3 23 Noroeste 35 Norte 0 -- -- 90
2019-06-10 00:00:00 19.7 19 Noroeste 26 Noroeste 0 -- -- 87
2019-06-09 23:00:00 20.1 13 Norte 18 Norte 0 -- -- 85
2019-06-09 22:00:00 20.3 14 Noroeste 27 Noroeste 0 -- -- 81
2019-06-09 21:00:00 20.2 18 Noroeste 31 Norte 0 -- -- 81
2019-06-09 20:00:00 20.1 25 Norte 30 Noroeste 0 -- -- 86
2019-06-09 19:00:00 20.6 24 Noroeste 35 Norte 0 -- -- 84
2019-06-09 18:00:00 21.3 27 Norte 39 Norte 0 -- -- 80
2019-06-09 17:00:00 21.9 30 Norte 42 Noroeste 0 -- -- 77
2019-06-09 16:00:00 22 31 Norte 41 Norte 0 -- -- 75
2019-06-09 15:00:00 24.8 13 Norte 19 Norte 0 -- -- 64
2019-06-09 14:00:00 23 16 Norte 21 Norte 0 -- -- 72
2019-06-09 13:00:00 24.8 14 Norte 18 Norte 0 -- -- 72
2019-06-09 12:00:00 23.6 6 Nordeste 10 Norte 0 -- -- 75
2019-06-09 11:00:00 23.3 6 Nordeste 12 Nordeste 0 -- -- 75
2019-06-09 10:00:00 23.2 5 Norte 15 Norte 0 -- -- 75
2019-06-09 09:00:00 21.7 4 Norte 11 Nordeste 0 -- -- 84
2019-06-09 08:00:00 20.1 3 Norte 12 Nordeste 0 -- -- 88
2019-06-09 07:00:00 19.4 6 Nordeste 15 Este 0 -- -- 87
2019-06-09 06:00:00 19 5 Este 12 Norte 0 -- -- 84
2019-06-09 05:00:00 18.9 6 Norte 13 Norte 0 -- -- 81
2019-06-09 04:00:00 19 12 Norte 17 Norte 0 -- -- 80
2019-06-09 03:00:00 19 13 Norte 21 Norte 0 -- -- 78
2019-06-09 02:00:00 19 19 Norte 26 Norte 0 -- -- 78
2019-06-09 01:00:00 19 21 Norte 28 Norte 0 -- -- 78
2019-06-09 00:00:00 18.8 24 Norte 32 Norte 0 -- -- 80
2019-06-08 23:00:00 18.9 22 Norte 27 Norte 0 -- -- 78
2019-06-08 22:00:00 19.2 23 Norte 27 Norte 0 -- -- 78
2019-06-08 21:00:00 19.4 22 Norte 27 Norte 0 -- -- 74
2019-06-08 20:00:00 19.6 24 Norte 30 Norte 0 -- -- 71
2019-06-08 19:00:00 20.2 25 Norte 31 Norte 0 -- -- 66
2019-06-08 18:00:00 20.9 27 Norte 36 Norte 0 -- -- 63
2019-06-08 17:00:00 21.2 32 Norte 37 Norte 0 -- -- 59
2019-06-08 16:00:00 22.2 31 Norte 37 Norte 0 -- -- 56
2019-06-08 15:00:00 21.9 30 Norte 37 Norte 0 -- -- 56
2019-06-08 14:00:00 21.3 30 Norte 40 Norte 0 -- -- 59
2019-06-08 13:00:00 20.7 30 Nordeste 39 Nordeste 0 -- -- 59
2019-06-08 12:00:00 21.5 33 Nordeste 43 Nordeste 0 -- -- 57
2019-06-08 11:00:00 20.8 35 Nordeste 41 Nordeste 0 -- -- 57
2019-06-08 10:00:00 20 27 Nordeste 33 Nordeste 0 -- -- 56
2019-06-08 09:00:00 19.4 27 Nordeste 49 Nordeste 0 -- -- 64
2019-06-08 08:00:00 19.1 41 Nordeste 53 Nordeste 0 -- -- 68
2019-06-08 07:00:00 19 45 Nordeste 58 Nordeste 0 -- -- 78
2019-06-08 06:00:00 19 41 Nordeste -- -- -- -- -- 75
2019-06-08 05:00:00 19 44 Norte 55 Norte 0 -- -- 82
2019-06-08 04:00:00 18.9 41 Norte 53 Norte 0 -- -- 88
2019-06-08 03:00:00 19.2 32 Norte -- -- -- -- -- 93
2019-06-08 02:00:00 19.7 29 Norte 36 Norte 0 -- -- 92
2019-06-08 01:00:00 19.8 5 Norte 28 Noroeste 0 -- -- 87
2019-06-08 00:00:00 19.8 3 Norte -- -- -- -- -- 89
2019-06-07 23:00:00 19.9 6 Norte 13 Norte 0 -- -- 88
2019-06-07 22:00:00 20.1 9 Nordeste 16 Norte 0 -- -- 85
2019-06-07 21:00:00 20.3 15 Norte 21 Norte 0 -- -- 81
2019-06-07 20:00:00 20.8 18 Norte 26 Norte 0 -- -- 79
2019-06-07 19:00:00 21.5 21 Norte 28 Norte 0 -- -- 77
2019-06-07 18:00:00 22.6 23 Norte 27 Norte 0 -- -- 69
2019-06-07 17:00:00 22 19 Norte 25 Norte 0 -- -- 72
2019-06-07 16:00:00 23.2 18 Nordeste 22 Nordeste 0 -- -- 68
2019-06-07 15:00:00 22.7 16 Nordeste 18 Este 0 -- -- 75
2019-06-07 14:00:00 22.9 13 Este 16 Sudeste 0 -- -- 74
2019-06-07 13:00:00 23.4 10 Sudeste 14 Sudeste 0 -- -- 72
2019-06-07 12:00:00 23.5 11 Sudeste 13 Sudeste 0 -- -- 72
2019-06-07 11:00:00 23.1 9 Sudeste -- -- -- -- -- 74
2019-06-07 10:00:00 21.5 21 Sudeste 26 Sudeste 0 -- -- 81
2019-06-07 09:00:00 21 5 Nordeste 11 Norte 0 -- -- 83
2019-06-07 08:00:00 20.6 0 Calma -- -- -- -- -- 87
2019-06-07 07:00:00 18.6 5 Noroeste 17 Norte 0 -- -- 94
2019-06-07 06:00:00 18.8 7 Noroeste 14 Sur 0 -- -- 94
2019-06-07 05:00:00 18.9 10 Sur 20 Sur 0 -- -- 93
2019-06-07 04:00:00 19.1 15 Sur 22 Sur 0 -- -- 93
2019-06-07 03:00:00 19.2 18 Sur 24 Sur 0 -- -- 93
2019-06-07 02:00:00 19.2 22 Sur 28 Sur 0 -- -- 93
2019-06-07 01:00:00 19.1 26 Sur 30 Sur 0 -- -- 93
2019-06-07 00:00:00 19.3 28 Sur 33 Sur 0 -- -- 93
2019-06-06 23:00:00 19.3 29 Sur 34 Sur 0 -- -- 92
2019-06-06 22:00:00 19.3 28 Sur 32 Sur 0 -- -- 91
2019-06-06 21:00:00 19.5 22 Sur -- -- -- -- -- 88
2019-06-06 20:00:00 19.8 23 Sur 28 Sur 0 -- -- 85
2019-06-06 19:00:00 20.1 23 Sur 31 Sur 0 -- -- 83
2019-06-06 18:00:00 20.3 24 Sur -- -- -- -- -- 81
2019-06-06 17:00:00 -- -- -- -- -- -- -- -- --
2019-06-06 16:00:00 22 22 Sur 26 Sur 0 -- -- 70
2019-06-06 15:00:00 22.5 20 Sudeste 24 Sur 0 -- -- 68
2019-06-06 14:00:00 22.4 22 Sur 25 Sur 0 -- -- 67
2019-06-06 13:00:00 22.3 21 Sudeste 26 Sur 0 -- -- 65
2019-06-06 12:00:00 22 17 Sudeste 24 Sudeste 0 -- -- 65
2019-06-06 11:00:00 21.5 18 Sudeste 22 Sudeste 0 -- -- 65
2019-06-06 10:00:00 21 17 Sudeste 22 Sudeste 0 -- -- 65
2019-06-06 09:00:00 19.6 17 Este 23 Este 0 -- -- 68
2019-06-06 08:00:00 19.1 17 Este -- -- -- -- -- 69
2019-06-06 07:00:00 17.6 14 Nordeste 20 Nordeste 0 -- -- 75
2019-06-06 06:00:00 17.1 12 Nordeste -- -- -- -- -- 80
2019-06-06 05:00:00 17.2 18 Nordeste 26 Nordeste 0 -- -- 80
2019-06-06 04:00:00 17.5 20 Nordeste 28 Nordeste 0 -- -- 81
2019-06-06 03:00:00 17.6 25 Nordeste 42 Nordeste 0 -- -- 85
2019-06-06 02:00:00 19.7 30 Norte 39 Norte 0 -- -- 69
2019-06-06 01:00:00 19.6 6 Noroeste 13 Noroeste 0 -- -- 50
2019-06-06 00:00:00 20.1 9 Noroeste 16 Noroeste 0 -- -- 51
2019-06-05 23:00:00 20.6 9 Noroeste -- -- -- -- -- 50
2019-06-05 22:00:00 20.5 14 Norte 33 Norte 0 -- -- 59
2019-06-05 21:00:00 21 19 Norte 34 Noroeste 0 -- -- 61
2019-06-05 20:00:00 21.8 28 Norte 41 Norte 0 -- -- 56
2019-06-05 19:00:00 21.8 14 Nordeste 27 Norte 0 -- -- 69
2019-06-05 18:00:00 21.8 9 Sudeste 17 Sudeste 0 -- -- 75
2019-06-05 17:00:00 21.8 16 Este 21 Nordeste 0 -- -- 74
2019-06-05 16:00:00 22.9 18 Norte 28 Norte 0 -- -- 72
2019-06-05 15:00:00 23.3 23 Norte 34 Norte 0 -- -- 68
2019-06-05 14:00:00 22.9 18 Sur 45 Sudoeste 0 -- -- 72
2019-06-05 13:00:00 21.8 25 Sur 52 Sur 0 -- -- 77
2019-06-05 12:00:00 -- 28 Sur -- -- -- -- -- --
2019-06-05 11:00:00 20.3 30 Sur 46 Sudoeste 0 -- -- 83
2019-06-05 10:00:00 20.1 23 Sur 32 Sur 0 -- -- 83
2019-06-05 09:00:00 19.9 17 Sur 28 Sudoeste 0 -- -- 87
2019-06-05 08:00:00 19.4 11 Sur 16 Sur 0 -- -- 93
2019-06-05 07:00:00 18.8 4 Sudoeste 14 Sur 0 -- -- 96
2019-06-05 06:00:00 18.5 4 Sudoeste 18 Sudoeste 0 -- -- 96
2019-06-05 05:00:00 18.9 5 Sudoeste 16 Sur 0 -- -- 97
2019-06-05 04:00:00 18.9 9 Sudoeste 15 Sudoeste 0 -- -- 96
2019-06-05 03:00:00 19.2 9 Sudoeste 15 Sudoeste 0 -- -- 96
2019-06-05 02:00:00 19.3 4 Sudoeste 22 Sur 0 -- -- 94
2019-06-05 01:00:00 19.8 12 Sur 28 Sur 0 -- -- 93
2019-06-05 00:00:00 20 24 Sur 27 Sur 0 -- -- 92
2019-06-04 23:00:00 20.1 22 Sur 24 Sur 0 -- -- 90
2019-06-04 22:00:00 20.3 19 Sur -- -- -- -- -- 87
2019-06-04 21:00:00 20.7 18 Sur 22 Sur 0 -- -- 84
2019-06-04 20:00:00 21.1 19 Sur 21 Sur 0 -- -- 78
2019-06-04 19:00:00 22.3 15 Sur -- -- -- -- -- 71
2019-06-04 18:00:00 22.9 19 Sur 24 Sur 0 -- -- 70
2019-06-04 17:00:00 24.3 16 Sur -- -- -- -- -- 63
2019-06-04 16:00:00 -- -- -- -- -- -- -- -- --
2019-06-04 15:00:00 25.7 16 Sur 18 Sur 0 -- -- 59
2019-06-04 14:00:00 25.8 17 Sur 21 Sur 0 -- -- 60
2019-06-04 13:00:00 25.5 18 Sur 21 Sur 0 -- -- 63
2019-06-04 12:00:00 24.9 17 Sur 19 Sur 0 -- -- 67
2019-06-04 11:00:00 24 14 Sur 16 Sur 0 -- -- 72
2019-06-04 10:00:00 22.1 10 Sur 13 Sur 0 -- -- 78
2019-06-04 09:00:00 21.8 7 Sudoeste 10 Sur 0 -- -- 79
2019-06-04 08:00:00 20.6 5 Sur 7 Sur 0 -- -- 80
2019-06-04 07:00:00 19.2 3 Sur 4 Sudoeste 0 -- -- 78
2019-06-04 06:00:00 18 3 Sudoeste 8 Sur 0 -- -- 82
2019-06-04 05:00:00 -- -- -- -- -- -- -- -- --
2019-06-04 04:00:00 18.3 4 Sudoeste 13 Sur 0 -- -- 84
2019-06-04 03:00:00 18.4 0 Calma 11 Sudoeste 0 -- -- 87
2019-06-04 02:00:00 18.7 3 Sudoeste 18 Sur 0 -- -- 87
2019-06-04 01:00:00 18.9 9 Sudoeste 17 Sudoeste 0 -- -- 82
2019-06-04 00:00:00 -- -- -- -- -- -- -- -- --
2019-06-03 23:00:00 19.9 13 Sur 22 Sur 0 -- -- 76
2019-06-03 22:00:00 19.5 2 Oeste 23 Sur 0 -- -- 69
2019-06-03 21:00:00 20.2 13 Sur 24 Sur 0 -- -- 73
2019-06-03 20:00:00 20.4 16 Sur 26 Sudoeste 0 -- -- 71
2019-06-03 19:00:00 20.8 15 Sur 28 Sur 0 -- -- 69
2019-06-03 18:00:00 22.6 23 Sur 27 Sur 0 -- -- 64
2019-06-03 17:00:00 23.8 22 Sur 25 Sur 0 -- -- 60
2019-06-03 16:00:00 24.6 23 Sur 27 Sur 0 -- -- 58
2019-06-03 15:00:00 24.5 22 Sur 25 Sur 0 -- -- 59
2019-06-03 14:00:00 24.4 19 Sur 22 Sur 0 -- -- 60
2019-06-03 13:00:00 24.2 19 Sur 21 Sur 0 -- -- 62
2019-06-03 12:00:00 23.8 14 Sur -- -- -- -- -- 65
2019-06-03 11:00:00 -- -- -- -- -- -- -- -- --
2019-06-03 10:00:00 22.7 10 Sur 17 Sur 0 -- -- 63
2019-06-03 09:00:00 21.8 8 Sur 12 Sur 0 -- -- 58
2019-06-03 08:00:00 20.8 4 Sudoeste 9 Sudoeste 0 -- -- 57
2019-06-03 07:00:00 20.4 4 Sur 4 Sur 0 -- -- 58
2019-06-03 06:00:00 18.3 2 Sudoeste 8 Sudoeste 0 -- -- 54
2019-06-03 05:00:00 18.3 4 Sur -- -- -- -- -- 65
2019-06-03 04:00:00 18.3 2 Oeste 4 Sudoeste 0 -- -- 54
2019-06-03 03:00:00 18.5 0 Calma 9 Oeste 0 -- -- 64
2019-06-03 02:00:00 18.7 0 Calma 8 Sudeste 0 -- -- 66
2019-06-03 01:00:00 18.7 0 Calma 11 Sudoeste 0 -- -- 73
2019-06-03 00:00:00 18.9 2 Oeste 21 Sur 0 -- -- 78
2019-06-02 23:00:00 19.4 11 Sudoeste 22 Sudoeste 0 -- -- 75
2019-06-02 22:00:00 19.4 4 Sudoeste 24 Sudoeste 0 -- -- 74
2019-06-02 21:00:00 19.9 12 Sudoeste 27 Sur 0 -- -- 73
2019-06-02 20:00:00 20 21 Sur 24 Sur 0 -- -- 71
2019-06-02 19:00:00 20.6 20 Sur 23 Sur 0 -- -- 65
2019-06-02 18:00:00 22.2 21 Sur 24 Sur 0 -- -- 63
2019-06-02 17:00:00 22.7 22 Sur 24 Sur 0 -- -- 60
2019-06-02 16:00:00 23.3 21 Sur 23 Sur 0 -- -- 61
2019-06-02 15:00:00 24 17 Sur 21 Sur 0 -- -- 60
2019-06-02 14:00:00 23.9 19 Sur 22 Sur 0 -- -- 62
2019-06-02 13:00:00 23.8 17 Sur 21 Sur 0 -- -- 63
2019-06-02 12:00:00 22.9 18 Sur 20 Sur 0 -- -- 66
2019-06-02 11:00:00 23.2 12 Sur 15 Sur 0 -- -- 69
2019-06-02 10:00:00 21.9 11 Sur 13 Sur 0 -- -- 77
2019-06-02 09:00:00 21.2 9 Sur 10 Sur 0 -- -- 78
2019-06-02 08:00:00 20.2 7 Sur 9 Sur 0 -- -- 74
2019-06-02 07:00:00 19.2 2 Sur 4 Oeste 0 -- -- 77
2019-06-02 06:00:00 17 3 Noroeste 5 Oeste 0 -- -- 85
2019-06-02 05:00:00 17.6 0 Calma 6 Sur 0 -- -- 85
2019-06-02 04:00:00 17.9 2 Sur 5 Sur 0 -- -- 83
2019-06-02 03:00:00 17.9 4 Sudoeste 6 Oeste 0 -- -- 84
2019-06-02 02:00:00 18.2 0 Calma 8 Sudoeste 0 -- -- 84
2019-06-02 01:00:00 18.6 0 Calma 10 Oeste 0 -- -- 83
2019-06-02 00:00:00 18.6 0 Calma 12 Sudoeste 0 -- -- 85
2019-06-01 23:00:00 18.9 5 Sudoeste 14 Sudoeste 0 -- -- 85
2019-06-01 22:00:00 19.3 7 Sudoeste 16 Sudoeste 0 -- -- 84
2019-06-01 21:00:00 19.6 11 Sur 19 Sur 0 -- -- 82
2019-06-01 20:00:00 20 15 Sur -- -- -- -- -- 80
2019-06-01 19:00:00 -- -- -- -- -- -- -- -- --
2019-06-01 18:00:00 22.3 14 Sur 18 Sur 0 -- -- 69
2019-06-01 17:00:00 22.9 15 Sur 17 Sur 0 -- -- 66
2019-06-01 16:00:00 24 13 Sur 16 Sur 0 -- -- 65
2019-06-01 15:00:00 24 12 Sur 15 Sur 0 -- -- 63
2019-06-01 14:00:00 23 12 Sudeste 14 Sur 0 -- -- 65
2019-06-01 13:00:00 22.2 10 Sudeste 14 Sudeste 0 -- -- 59
2019-06-01 12:00:00 22.2 10 Sudeste 14 Sudeste 0 -- -- 72
2019-06-01 11:00:00 21.9 6 Nordeste 10 Norte 0 -- -- 74
2019-06-01 10:00:00 21.3 6 Norte 10 Norte 0 -- -- 74
2019-06-01 09:00:00 21.4 7 Norte 10 Norte 0 -- -- 72
2019-06-01 08:00:00 20.8 8 Noroeste 14 Norte 0 -- -- 77
2019-06-01 07:00:00 18.4 8 Noroeste 12 Noroeste 0 -- -- 84
2019-06-01 06:00:00 17.4 11 Noroeste 13 Noroeste 0 -- -- 86
2019-06-01 05:00:00 17.6 10 Noroeste 15 Noroeste 0 -- -- 85
2019-06-01 04:00:00 17.7 12 Noroeste 14 Noroeste 0 -- -- 82
2019-06-01 03:00:00 17.8 6 Noroeste 9 Noroeste 0 -- -- 66
2019-06-01 02:00:00 18.1 0 Calma 5 Noroeste 0 -- -- 58
2019-06-01 01:00:00 18.2 4 Noroeste 11 Noroeste 0 -- -- 57
2019-06-01 00:00:00 18.4 7 Noroeste 10 Noroeste 0 -- -- 61
2019-05-31 23:00:00 18.6 0 Calma 7 Noroeste 0 -- -- 59
2019-05-31 22:00:00 19 4 Norte 9 Noroeste 0 -- -- 60
2019-05-31 21:00:00 18.7 5 Noroeste 13 Noroeste 0 -- -- 75
2019-05-31 20:00:00 19.1 13 Noroeste 23 Noroeste 0 -- -- 81
2019-05-31 19:00:00 19.3 21 Noroeste 23 Noroeste 0 -- -- 80
2019-05-31 18:00:00 20.8 19 Noroeste 22 Noroeste 0 -- -- 72
2019-05-31 17:00:00 21.5 20 Norte 26 Norte 0 -- -- 67
2019-05-31 16:00:00 22.1 22 Norte 25 Norte 0 -- -- 63
2019-05-31 15:00:00 22 23 Noroeste 29 Noroeste 0 -- -- 59
2019-05-31 14:00:00 22.8 22 Noroeste 31 Noroeste 0 -- -- 51
2019-05-31 13:00:00 22.3 22 Noroeste 34 Noroeste 0 -- -- 47
2019-05-31 12:00:00 21.7 24 Noroeste 33 Norte 0 -- -- 50
2019-05-31 11:00:00 21.2 24 Noroeste 33 Noroeste 0 -- -- 53
2019-05-31 10:00:00 20.6 23 Noroeste 34 Norte 0 -- -- 56
2019-05-31 09:00:00 20 20 Noroeste 32 Noroeste 0 -- -- 60
2019-05-31 08:00:00 19.5 22 Noroeste 33 Norte 0 -- -- 69
2019-05-31 07:00:00 18.3 20 Norte 26 Noroeste 0 -- -- 75
2019-05-31 06:00:00 17.7 15 Noroeste 26 Norte 0 -- -- 75
2019-05-31 05:00:00 17.6 17 Noroeste 25 Norte 0 -- -- 75
2019-05-31 04:00:00 17.8 19 Noroeste 26 Noroeste 0 -- -- 72
2019-05-31 03:00:00 17 3 Norte 11 Noroeste 0 -- -- 77
2019-05-31 02:00:00 17.2 8 Oeste 10 Oeste 0 -- -- 74
2019-05-31 01:00:00 17.2 4 Sudoeste 7 Oeste 0 -- -- 78
2019-05-31 00:00:00 17.3 5 Oeste 9 Noroeste 0 -- -- 81
2019-05-30 23:00:00 17.1 3 Noroeste 10 Norte 0 -- -- 86
2019-05-30 22:00:00 17.5 8 Noroeste 10 Noroeste 0 -- -- 87
2019-05-30 21:00:00 17.9 8 Norte 12 Norte 0 -- -- 85
2019-05-30 20:00:00 18.5 11 Norte 20 Norte 0 -- -- 81
2019-05-30 19:00:00 18.8 17 Noroeste 26 Norte 0 -- -- 78
2019-05-30 18:00:00 19.6 20 Noroeste 33 Norte 0 -- -- 75
2019-05-30 17:00:00 19.8 29 Norte 35 Norte 0 -- -- 73
2019-05-30 16:00:00 20.4 27 Norte 33 Noroeste 0 -- -- 68
2019-05-30 15:00:00 20.6 29 Norte 42 Norte 0 -- -- 68
2019-05-30 14:00:00 19.7 33 Norte 42 Norte 0 -- -- 68
2019-05-30 13:00:00 19.9 33 Norte 48 Norte 0 -- -- 69
2019-05-30 12:00:00 19.8 30 Noroeste 43 Norte 0 -- -- 66
2019-05-30 11:00:00 19.5 26 Noroeste 38 Norte 0 -- -- 63
2019-05-30 10:00:00 21.3 16 Noroeste 30 Norte 0 -- -- 50
2019-05-30 09:00:00 21.7 12 Noroeste 17 Noroeste 0 -- -- 48
2019-05-30 08:00:00 20.1 6 Oeste 16 Oeste 0 -- -- 57
2019-05-30 07:00:00 17.5 11 Oeste 19 Noroeste 0 -- -- 61
2019-05-30 06:00:00 16.3 15 Oeste 22 Oeste 0 -- -- 66
2019-05-30 05:00:00 16.2 18 Oeste 22 Oeste 0 -- -- 68
2019-05-30 04:00:00 16.2 18 Oeste 23 Oeste 0 -- -- 66
2019-05-30 03:00:00 16.1 17 Oeste 22 Oeste 0 -- -- 68
2019-05-30 02:00:00 16.1 12 Oeste 23 Oeste 0 -- -- 70
2019-05-30 01:00:00 15.9 5 Sudoeste 15 Sur 0 -- -- 71
2019-05-30 00:00:00 16.5 0 Calma 6 Sudeste 0 -- -- 70
2019-05-29 23:00:00 17 4 Este 10 Nordeste 0 -- -- 68
2019-05-29 22:00:00 17 6 Nordeste 12 Nordeste 0 -- -- 68
2019-05-29 21:00:00 17.2 7 Nordeste 15 Norte 0 -- -- 66
2019-05-29 20:00:00 17.6 12 Nordeste 19 Norte 0 -- -- 66
2019-05-29 19:00:00 18.5 12 Norte 18 Norte 0 -- -- 62
2019-05-29 18:00:00 18.3 16 Norte 24 Norte 0 -- -- 64
2019-05-29 17:00:00 18.6 18 Nordeste 28 Nordeste 0 -- -- 61
2019-05-29 16:00:00 18.4 23 Norte 33 Nordeste 0 -- -- 58
2019-05-29 15:00:00 19.2 17 Norte 33 Nordeste 0 -- -- 56
2019-05-29 14:00:00 19.2 28 Nordeste 42 Nordeste 0 -- -- 59
2019-05-29 13:00:00 19 39 Nordeste 50 Nordeste 0 -- -- 54
2019-05-29 12:00:00 18.1 33 Norte 41 Nordeste 0 -- -- 54
2019-05-29 11:00:00 19.3 26 Nordeste 42 Nordeste 0 -- -- 55
2019-05-29 10:00:00 17.4 20 Nordeste -- -- -- -- -- 64
2019-05-29 09:00:00 16.2 18 Norte 32 Norte 0 -- -- 75
2019-05-29 08:00:00 15.9 26 Norte 37 Nordeste 0 -- -- 75
2019-05-29 07:00:00 16.7 26 Norte -- -- -- -- -- 73
2019-05-29 06:00:00 16.4 24 Nordeste -- -- -- -- -- 75
2019-05-29 05:00:00 16 24 Nordeste 29 Nordeste 0 -- -- 82
2019-05-29 04:00:00 16.2 27 Nordeste 35 Nordeste 0 -- -- 77
2019-05-29 03:00:00 16.6 29 Nordeste 35 Nordeste 0 -- -- 75
2019-05-29 02:00:00 17.3 8 Este 12 Sudeste 0 -- -- 66
2019-05-29 01:00:00 17.4 10 Sudeste 17 Este 0 -- -- 66
2019-05-29 00:00:00 17.6 15 Este 21 Este 0 -- -- 65
2019-05-28 23:00:00 17.6 10 Este 14 Este 0 -- -- 73
2019-05-28 22:00:00 17.3 9 Este 20 Nordeste 0.1 -- -- 75
2019-05-28 21:00:00 17.1 19 Nordeste 24 Este 0 -- -- 73
2019-05-28 20:00:00 17.1 20 Este 30 Nordeste 0.3 -- -- 75
2019-05-28 19:00:00 17.2 30 Este 39 Este 0 -- -- 78
2019-05-28 18:00:00 17.7 30 Este 34 Este 0 -- -- 81
2019-05-28 17:00:00 19.3 22 Norte 24 Norte 0 -- -- 75
2019-05-28 16:00:00 19.9 18 Norte 28 Noroeste 0 -- -- 73
2019-05-28 15:00:00 19.9 24 Norte 31 Noroeste 0 -- -- 72
2019-05-28 14:00:00 20.4 24 Norte -- -- -- -- -- 71
2019-05-28 13:00:00 20.7 9 Este 14 Nordeste 0 -- -- 79
2019-05-28 12:00:00 21.4 9 Sudeste 13 Sudeste 0 -- -- 78
2019-05-28 11:00:00 21.4 4 Sudeste 14 Sur 0 -- -- 77
2019-05-28 10:00:00 21.9 10 Sur 14 Sudoeste 0 -- -- 70
2019-05-28 09:00:00 20.2 4 Sudoeste 17 Sudoeste 0 -- -- 74
2019-05-28 08:00:00 19 0 Calma 13 Sur 0 -- -- 84
2019-05-28 07:00:00 17.3 4 Sudoeste 14 Oeste 0 -- -- 92
2019-05-28 06:00:00 16.9 3 Oeste 14 Oeste 0 -- -- 94
2019-05-28 05:00:00 16.8 2 Sudoeste 10 Sudoeste 0 -- -- 94
2019-05-28 04:00:00 17.1 3 Sudoeste 9 Sudoeste 0 -- -- 94
2019-05-28 03:00:00 17.4 3 Sudoeste 15 Sudoeste 0 -- -- 95
2019-05-28 02:00:00 17.8 0 Calma 23 Sur 0 -- -- 96
2019-05-28 01:00:00 18 7 Sudoeste 19 Sudoeste 0 -- -- 96
2019-05-28 00:00:00 18.3 11 Sur 23 Sur 0 -- -- 96
2019-05-27 23:00:00 18.5 10 Sur 22 Sur 0 -- -- 90
2019-05-27 22:00:00 18.6 10 Sudoeste 27 Sur 0 -- -- 90
2019-05-27 21:00:00 18.7 22 Sur 26 Sur 0 -- -- 90
2019-05-27 20:00:00 18.9 14 Sur 29 Sur 0 -- -- 85
2019-05-27 19:00:00 19.7 16 Sur 27 Sur 0 -- -- 67
2019-05-27 18:00:00 20.9 18 Sur 22 Sur 0 -- -- 69
2019-05-27 17:00:00 23.1 14 Sur 18 Sur 0 -- -- 61
2019-05-27 16:00:00 21.3 5 Este 10 Nordeste 0 -- -- 62
2019-05-27 15:00:00 21.4 6 Nordeste 10 Norte 0 -- -- 62
2019-05-27 14:00:00 22.7 9 Norte 20 Noroeste 0 -- -- 59
2019-05-27 13:00:00 23.3 16 Noroeste 22 Noroeste 0 -- -- 54
2019-05-27 12:00:00 20.9 21 Norte 32 Norte 0 -- -- 56
2019-05-27 11:00:00 20.7 24 Noroeste 34 Noroeste 0 -- -- 56
2019-05-27 10:00:00 20.9 19 Norte 37 Noroeste 0 -- -- 53
2019-05-27 09:00:00 20.9 24 Noroeste 35 Norte 0 -- -- 51
2019-05-27 08:00:00 20.8 13 Norte 27 Norte 0 -- -- 49
2019-05-27 07:00:00 19.4 11 Noroeste 27 Noroeste 0 -- -- 49
2019-05-27 06:00:00 18.8 7 Noroeste 30 Noroeste 0 -- -- 49
2019-05-27 05:00:00 18.9 11 Norte 28 Noroeste 0 -- -- 49
2019-05-27 04:00:00 18.7 8 Noroeste 28 Noroeste 0 -- -- 53
2019-05-27 03:00:00 18.8 12 Noroeste 22 Oeste 0 -- -- 50
2019-05-27 02:00:00 18.6 14 Oeste 23 Oeste 0 -- -- 50
2019-05-27 01:00:00 18.7 13 Oeste 21 Oeste 0 -- -- 51
2019-05-27 00:00:00 19.4 10 Oeste 21 Oeste 0 -- -- 51
2019-05-26 23:00:00 18.8 8 Noroeste 18 Oeste 0 -- -- 54
2019-05-26 22:00:00 18.7 10 Noroeste 24 Norte 0 -- -- 56
2019-05-26 21:00:00 19 15 Norte 37 Noroeste 0 -- -- 56
2019-05-26 20:00:00 19.1 24 Norte 44 Noroeste 0 -- -- 57
2019-05-26 19:00:00 19.4 30 Noroeste 46 Noroeste 0 -- -- 57
2019-05-26 18:00:00 20.1 31 Norte 48 Norte 0 -- -- 57
2019-05-26 17:00:00 19.8 26 Norte 44 Norte 0 -- -- 57
2019-05-26 16:00:00 20.4 26 Noroeste 41 Norte 0 -- -- 56
2019-05-26 15:00:00 19.8 30 Noroeste 46 Noroeste 0 -- -- 59
2019-05-26 14:00:00 19.4 34 Noroeste 46 Noroeste 0 -- -- 65
2019-05-26 13:00:00 19.5 32 Noroeste 48 Noroeste 0 -- -- 65
2019-05-26 12:00:00 20.1 36 Norte 47 Noroeste 0 -- -- 66
2019-05-26 11:00:00 19.8 32 Norte 43 Norte 0 -- -- 66
2019-05-26 10:00:00 19.7 28 Noroeste 41 Noroeste 0 -- -- 67
2019-05-26 09:00:00 18.8 27 Norte 42 Norte 0 -- -- 71
2019-05-26 08:00:00 18 33 Noroeste 46 Noroeste 0 -- -- 76
2019-05-26 07:00:00 18.1 33 Norte 45 Norte 0 -- -- 72
2019-05-26 06:00:00 18.2 31 Norte 47 Noroeste 0 -- -- 69
2019-05-26 05:00:00 18 22 Noroeste 47 Norte 0 -- -- 69
2019-05-26 04:00:00 18 30 Noroeste 46 Norte 0 -- -- 71
2019-05-26 03:00:00 18 28 Noroeste 40 Noroeste 0 -- -- 73
2019-05-26 02:00:00 17.1 12 Noroeste 24 Norte 0 -- -- 86
2019-05-26 01:00:00 17.1 19 Noroeste 30 Noroeste 0 -- -- 87
2019-05-26 00:00:00 17.3 27 Noroeste 34 Norte 0 -- -- 87
2019-05-25 23:00:00 17.2 28 Norte 37 Norte 0 -- -- 87
2019-05-25 22:00:00 17.2 32 Norte 40 Noroeste 0 -- -- 87
2019-05-25 21:00:00 17.2 34 Norte 42 Noroeste 0 -- -- 87
2019-05-25 20:00:00 17 36 Norte 44 Norte 0 -- -- 87
2019-05-25 19:00:00 17.2 31 Norte 41 Noroeste 0 -- -- 87
2019-05-25 18:00:00 17.4 30 Norte 41 Norte 0 -- -- 85
2019-05-25 17:00:00 16.8 27 Noroeste 44 Noroeste 0.1 -- -- 92
2019-05-25 16:00:00 16.6 25 Noroeste 40 Noroeste 0 -- -- 96
2019-05-25 15:00:00 16.1 25 Noroeste 37 Noroeste 0.3 -- -- 98
2019-05-25 14:00:00 16.1 22 Noroeste 35 Noroeste 0.8 -- -- 96
2019-05-25 13:00:00 17.4 26 Norte 32 Noroeste 0 -- -- 86
2019-05-25 12:00:00 17.6 26 Norte 31 Norte 0 -- -- 87
2019-05-25 11:00:00 16.4 26 Norte 32 Noroeste 0 -- -- 93
2019-05-25 10:00:00 16.7 25 Norte 30 Noroeste 0 -- -- 89
2019-05-25 09:00:00 16.4 23 Norte 27 Norte 0 -- -- 88
2019-05-25 08:00:00 16.4 22 Norte 27 Norte 0 -- -- 85
2019-05-25 07:00:00 16.6 16 Norte 22 Norte 0 -- -- 81
2019-05-25 06:00:00 16.5 15 Norte 21 Nordeste 0 -- -- 84
2019-05-25 05:00:00 16.2 15 Norte 20 Norte 0 -- -- 87
2019-05-25 04:00:00 16.3 14 Nordeste 21 Nordeste 0 -- -- 88
2019-05-25 03:00:00 16.3 15 Nordeste 20 Nordeste 0 -- -- 89
2019-05-25 02:00:00 16.5 16 Nordeste 20 Norte 0 -- -- 93
2019-05-25 01:00:00 16.8 13 Nordeste 18 Este 0 -- -- 91
2019-05-25 00:00:00 16.8 16 Nordeste 18 Este 0 -- -- 94
2019-05-24 23:00:00 16.9 12 Norte 25 Noroeste 0 -- -- 93
2019-05-24 22:00:00 16.9 17 Norte 19 Norte 0 -- -- 89
2019-05-24 21:00:00 16.6 14 Noroeste 18 Noroeste 0 -- -- 81
2019-05-24 20:00:00 16.7 12 Noroeste 18 Noroeste 0 -- -- 74
2019-05-24 19:00:00 16.8 14 Norte 22 Noroeste 0.1 -- -- 78
2019-05-24 18:00:00 17.3 20 Norte 34 Noroeste 0 -- -- 80
2019-05-24 17:00:00 17.9 14 Norte 38 Norte 0 -- -- 65
2019-05-24 16:00:00 17.6 21 Norte 32 Noroeste 0.1 -- -- 78
2019-05-24 15:00:00 18.3 15 Norte 19 Noroeste 0.1 -- -- 73
2019-05-24 14:00:00 19.5 12 Noroeste 25 Noroeste 0 -- -- 71
2019-05-24 13:00:00 19.5 18 Noroeste 28 Noroeste 0 -- -- 66
2019-05-24 12:00:00 19.9 9 Norte 13 Norte 0 -- -- 72
2019-05-24 11:00:00 19.8 6 Sur 10 Sur 0 -- -- 78
2019-05-24 10:00:00 20 4 Sudeste 6 Sudeste 0 -- -- 75
2019-05-24 09:00:00 20.5 0 Calma 5 Sudoeste 0 -- -- 71
2019-05-24 08:00:00 19.6 4 Sudoeste 10 Sur 0 -- -- 63
2019-05-24 07:00:00 18.5 6 Sur 9 Sudoeste 0 -- -- 61
2019-05-24 06:00:00 17.9 0 Calma 14 Sur 0 -- -- 60
2019-05-24 05:00:00 17.9 0 Calma 13 Oeste 0 -- -- 59
2019-05-24 04:00:00 17.7 0 Calma 12 Sur 0 -- -- 60
2019-05-24 03:00:00 18 0 Calma 10 Oeste 0 -- -- 54
2019-05-24 02:00:00 18 3 Sudoeste 8 Sudoeste 0 -- -- 51
2019-05-24 01:00:00 18.4 3 Norte 10 Oeste 0 -- -- 53
2019-05-24 00:00:00 18.5 0 Calma 16 Sudoeste 0 -- -- 54
2019-05-23 23:00:00 18.6 3 Sudoeste 20 Sudoeste 0 -- -- 55
2019-05-23 22:00:00 19 12 Sudoeste 31 Sudoeste 0 -- -- 57
2019-05-23 21:00:00 19.5 8 Sudoeste 22 Sur 0 -- -- 57
2019-05-23 20:00:00 20 7 Sudoeste 39 Sudoeste 0 -- -- 55
2019-05-23 19:00:00 19.1 28 Sur 43 Sur 0 -- -- 74
2019-05-23 18:00:00 19.5 29 Sur 50 Sudoeste 0 -- -- 68
2019-05-23 17:00:00 20.1 26 Sur 44 Sur 0 -- -- 65
2019-05-23 16:00:00 20.3 27 Sudoeste 41 Sudoeste 0 -- -- 66
2019-05-23 15:00:00 20.4 24 Sur 37 Sudoeste 0 -- -- 66
2019-05-23 14:00:00 20.5 21 Sur 37 Sudoeste 0 -- -- 69
2019-05-23 13:00:00 20.5 22 Sur 36 Sur 0 -- -- 70
2019-05-23 12:00:00 20.8 26 Sur 30 Sur 0 -- -- 71
2019-05-23 11:00:00 21.2 19 Sur 24 Sur 0 -- -- 65
2019-05-23 10:00:00 20.7 11 Sur 14 Sur 0 -- -- 54
2019-05-23 09:00:00 23.2 4 Sur 12 Oeste 0 -- -- 35
2019-05-23 08:00:00 21.8 3 Sudoeste 14 Oeste 0 -- -- 36
2019-05-23 07:00:00 18.3 5 Sur 9 Sudoeste 0 -- -- 47
2019-05-23 06:00:00 17.2 4 Sur 9 Sur 0 -- -- 43
2019-05-23 05:00:00 16.9 5 Sudoeste 16 Sudoeste 0 -- -- 47
2019-05-23 04:00:00 16.6 4 Sudoeste 10 Sudoeste 0 -- -- 66
2019-05-23 03:00:00 16.5 2 Sudoeste 12 Sudoeste 0 -- -- 78
2019-05-23 02:00:00 16.6 0 Calma 13 Sudoeste 0 -- -- 80
2019-05-23 01:00:00 16.8 8 Sudoeste 16 Sur 0 -- -- 85
2019-05-23 00:00:00 16.8 4 Sudoeste 13 Sudoeste 0 -- -- 88
2019-05-22 23:00:00 17.3 4 Sudoeste 17 Sudoeste 0 -- -- 87
2019-05-22 22:00:00 17.9 6 Sudoeste 22 Sur 0 -- -- 88
2019-05-22 21:00:00 18.1 17 Sur 23 Sur 0 -- -- 84
2019-05-22 20:00:00 18.6 17 Sur -- -- -- -- -- 77
2019-05-22 19:00:00 19.6 14 Sur 17 Sur 0 -- -- 72
2019-05-22 18:00:00 20.9 12 Sur 15 Sur 0 -- -- 63
2019-05-22 17:00:00 20.6 8 Sudeste 10 Sudeste 0 -- -- 59
2019-05-22 16:00:00 21.1 6 Este 13 Nordeste 0 -- -- 58
2019-05-22 15:00:00 20.9 8 Nordeste 16 Norte 0 -- -- 54
2019-05-22 14:00:00 22.5 14 Noroeste 18 Noroeste 0 -- -- 56
2019-05-22 13:00:00 21.4 16 Noroeste 19 Noroeste 0 -- -- 66
2019-05-22 12:00:00 21.4 18 Norte 21 Noroeste 0 -- -- 62
2019-05-22 11:00:00 19.8 17 Noroeste 26 Norte 0 -- -- 59
2019-05-22 10:00:00 21.2 15 Noroeste 20 Norte 0 -- -- 59
2019-05-22 09:00:00 20.3 14 Norte 17 Norte 0 -- -- 56
2019-05-22 08:00:00 20.5 0 Calma 8 Norte 0 -- -- 62
2019-05-22 07:00:00 17.9 4 Norte 8 Noroeste 0 -- -- 75
2019-05-22 06:00:00 16.4 5 Noroeste 7 Noroeste 0 -- -- 71
2019-05-22 05:00:00 16.5 0 Calma 9 Sudoeste 0 -- -- 74
2019-05-22 04:00:00 16.4 6 Sudoeste 10 Sur 0 -- -- 78
2019-05-22 03:00:00 16.6 0 Calma 9 Oeste 0 -- -- 81
2019-05-22 02:00:00 16.7 8 Oeste 11 Oeste 0 -- -- 84
2019-05-22 01:00:00 16.5 0 Calma 9 Sur 0 -- -- 85
2019-05-22 00:00:00 16.8 0 Calma 16 Sudoeste 0 -- -- 85
2019-05-21 23:00:00 17.1 3 Sudoeste 22 Sudoeste 0 -- -- 84
2019-05-21 22:00:00 17.5 13 Sur 22 Sur 0 -- -- 82
2019-05-21 21:00:00 17.6 13 Sur 21 Sur 0 -- -- 78
2019-05-21 20:00:00 18.2 15 Sur 21 Sudeste 0 -- -- 76
2019-05-21 19:00:00 18.6 18 Sur 21 Sudeste 0 -- -- 75
2019-05-21 18:00:00 19 15 Sur 19 Sur 0 -- -- 68
2019-05-21 17:00:00 19.8 14 Sur -- -- -- -- -- 64
2019-05-21 16:00:00 21.8 17 Sur 26 Sur 0 -- -- 56
2019-05-21 15:00:00 21.1 19 Sur 24 Sur 0 -- -- 59
2019-05-21 14:00:00 22.3 15 Sur 17 Sur 0 -- -- 58
2019-05-21 13:00:00 22.1 13 Sur 19 Sur 0 -- -- 59
2019-05-21 12:00:00 21.5 15 Sudeste 16 Sudeste 0 -- -- 54
2019-05-21 11:00:00 20.7 6 Sudeste 10 Sudeste 0 -- -- 53
2019-05-21 10:00:00 19.8 4 Sudeste 7 Sudeste 0 -- -- 58
2019-05-21 09:00:00 19.1 2 Sudeste 6 Sur 0 -- -- 54
2019-05-21 08:00:00 16 6 Sur 9 Sur 0 -- -- 70
2019-05-21 07:00:00 15.5 0 Calma 12 Oeste 0 -- -- 77
2019-05-21 06:00:00 14.6 6 Sudoeste 10 Sudoeste 0 -- -- 81
2019-05-21 05:00:00 14.9 0 Calma -- -- -- -- -- 81
2019-05-21 04:00:00 -- -- -- -- -- -- -- -- --
2019-05-21 03:00:00 14.9 3 Norte 10 Norte 0 -- -- 77
2019-05-21 02:00:00 15.1 8 Noroeste 14 Noroeste 0 -- -- 75
2019-05-21 01:00:00 15.4 7 Norte 12 Norte 0 -- -- 74
2019-05-21 00:00:00 15.7 6 Norte 12 Norte 0 -- -- 71